Time;durP1;ratioP1;P1;durP2;ratioP2;P2;SDS_P1;SDS_P2;PMS_P1;PMS_P2;Temp;Humidity;BMP_temperature;BMP_pressure;BME280_temperature;BME280_humidity;BME280_pressure;Samples;Min_cycle;Max_cycle;Signal;HPM_P1;HPM_P2
2021/07/11 00:01:10;;;;;;;12.10;10.47;;;23.40;99.90;;;;;;5134574;27;20238;-66
2021/07/11 00:03:36;;;;;;;12.23;10.87;;;23.40;99.90;;;;;;5135060;28;20220;-64
2021/07/11 00:06:01;;;;;;;14.57;11.00;;;23.40;99.90;;;;;;5134523;27;20323;-63
2021/07/11 00:08:27;;;;;;;12.87;10.83;;;23.40;99.90;;;;;;5134864;28;20179;-66
2021/07/11 00:10:52;;;;;;;12.43;11.10;;;23.40;99.90;;;;;;5134425;28;20244;-66
2021/07/11 00:13:18;;;;;;;12.40;10.67;;;23.40;99.90;;;;;;5134875;28;20180;-63
2021/07/11 00:15:44;;;;;;;12.10;10.90;;;23.30;99.90;;;;;;5134505;28;20198;-63
2021/07/11 00:18:11;;;;;;;11.37;10.27;;;23.30;99.90;;;;;;5134698;28;20265;-66
2021/07/11 00:20:37;;;;;;;12.13;10.93;;;23.30;99.90;;;;;;5134499;28;20232;-63
2021/07/11 00:23:03;;;;;;;12.40;11.13;;;23.20;99.90;;;;;;5134562;28;20959;-65
2021/07/11 00:25:28;;;;;;;12.03;10.83;;;23.20;99.90;;;;;;5116039;28;20225;-63
2021/07/11 00:27:55;;;;;;;11.97;10.13;;;23.10;99.90;;;;;;5136309;27;20682;-63
2021/07/11 00:30:21;;;;;;;12.50;11.10;;;23.10;99.90;;;;;;5120175;27;20191;-63
2021/07/11 00:32:47;;;;;;;12.57;11.27;;;23.10;99.90;;;;;;5138730;27;20423;-63
2021/07/11 00:35:13;;;;;;;12.43;11.17;;;23.10;99.90;;;;;;5138421;27;20428;-66
2021/07/11 00:37:38;;;;;;;11.20;10.17;;;23.10;99.90;;;;;;5138464;27;20237;-66
2021/07/11 00:40:06;;;;;;;12.03;10.73;;;23.10;99.90;;;;;;5138316;27;20454;-66
2021/07/11 00:42:32;;;;;;;11.50;10.30;;;23.00;99.90;;;;;;5138345;27;20615;-66
2021/07/11 00:44:57;;;;;;;13.60;9.73;;;23.00;99.90;;;;;;5119867;27;20490;-63
2021/07/11 00:47:23;;;;;;;11.43;10.17;;;23.00;99.90;;;;;;5138320;27;20202;-63
2021/07/11 00:49:49;;;;;;;13.70;10.60;;;23.00;99.90;;;;;;5138168;27;20628;-63
2021/07/11 00:52:15;;;;;;;11.90;10.60;;;23.00;99.90;;;;;;5138306;27;20190;-63
2021/07/11 00:54:41;;;;;;;14.47;12.77;;;23.00;99.90;;;;;;5138137;27;20171;-66
2021/07/11 00:57:07;;;;;;;12.60;11.30;;;23.00;99.90;;;;;;5137898;27;20466;-63
2021/07/11 00:59:34;;;;;;;12.63;11.17;;;23.00;99.90;;;;;;5138097;27;20402;-63
2021/07/11 01:02:06;;;;;;;13.87;11.50;;;23.00;99.90;;;;;;5137662;27;20521;-66
2021/07/11 01:04:47;;;;;;;13.70;11.40;;;22.90;99.90;;;;;;5137861;27;20414;-66
2021/07/11 01:07:14;;;;;;;13.77;12.37;;;22.90;99.90;;;;;;5119457;27;20419;-66
2021/07/11 01:09:46;;;;;;;12.27;11.00;;;22.90;99.90;;;;;;5119314;27;20415;-63
2021/07/11 01:12:20;;;;;;;13.80;12.33;;;22.80;99.90;;;;;;5137804;27;20419;-63
2021/07/11 01:14:49;;;;;;;15.13;12.33;;;22.80;99.90;;;;;;5119334;27;20407;-63
2021/07/11 01:17:16;;;;;;;15.33;12.10;;;22.70;99.90;;;;;;5137852;27;20432;-66
2021/07/11 01:19:48;;;;;;;14.00;11.83;;;22.80;99.90;;;;;;5137636;27;20400;-66
2021/07/11 01:22:15;;;;;;;13.03;11.27;;;22.70;99.90;;;;;;5137694;27;20490;-66
2021/07/11 01:24:52;;;;;;;16.10;12.03;;;22.70;99.90;;;;;;5137785;27;20884;-66
2021/07/11 01:27:18;;;;;;;15.30;12.10;;;22.60;99.90;;;;;;5137847;27;20414;-63
2021/07/11 01:29:45;;;;;;;15.10;12.23;;;22.70;99.90;;;;;;5137421;27;20403;-63
2021/07/11 01:32:12;;;;;;;12.63;11.33;;;22.60;99.90;;;;;;5119071;27;20419;-66
2021/07/11 01:34:39;;;;;;;14.90;12.63;;;22.60;99.90;;;;;;5137431;27;20497;-66
2021/07/11 01:37:04;;;;;;;14.67;13.07;;;22.60;99.90;;;;;;5137493;27;20859;-63
2021/07/11 01:39:31;;;;;;;13.23;11.53;;;22.60;99.90;;;;;;5136437;27;20435;-63
2021/07/11 01:41:58;;;;;;;15.67;12.90;;;22.60;99.90;;;;;;5137105;27;20191;-63
2021/07/11 01:44:28;;;;;;;15.00;13.50;;;22.60;99.90;;;;;;5137116;27;20752;-66
2021/07/11 01:46:54;;;;;;;14.90;13.23;;;22.50;99.90;;;;;;5137051;27;20427;-66
2021/07/11 01:49:20;;;;;;;15.20;13.60;;;22.50;99.90;;;;;;5137274;27;20396;-66
2021/07/11 01:51:48;;;;;;;14.83;12.00;;;22.50;99.90;;;;;;5118518;27;20449;-66
2021/07/11 01:54:14;;;;;;;14.23;12.73;;;22.50;99.90;;;;;;5137066;27;20419;-66
2021/07/11 01:56:40;;;;;;;17.73;12.17;;;22.50;99.90;;;;;;5118518;27;20431;-66
2021/07/11 01:59:09;;;;;;;17.53;12.83;;;22.50;99.90;;;;;;5137291;27;20443;-63
2021/07/11 02:01:35;;;;;;;17.00;13.10;;;22.50;99.90;;;;;;5136892;27;20420;-66
2021/07/11 02:04:01;;;;;;;13.70;12.30;;;22.50;99.90;;;;;;5137245;27;20471;-63
2021/07/11 02:06:27;;;;;;;15.77;12.00;;;22.50;99.90;;;;;;5136714;27;20187;-65
2021/07/11 02:08:53;;;;;;;13.40;11.97;;;22.50;99.90;;;;;;5137181;27;20424;-63
2021/07/11 02:11:21;;;;;;;14.20;12.50;;;22.40;99.90;;;;;;5136692;27;20228;-63
2021/07/11 02:13:49;;;;;;;15.83;14.10;;;22.40;99.90;;;;;;5118410;27;20270;-63
2021/07/11 02:16:33;;;;;;;15.97;12.63;;;22.40;99.90;;;;;;5136616;27;20955;-63
2021/07/11 02:19:00;;;;;;;17.20;13.27;;;22.30;99.90;;;;;;5118386;27;20419;-66
2021/07/11 02:21:27;;;;;;;16.10;12.20;;;22.30;99.90;;;;;;5136530;27;20442;-65
2021/07/11 02:23:54;;;;;;;14.03;12.40;;;22.20;99.90;;;;;;5136854;27;20475;-66
2021/07/11 02:26:23;;;;;;;15.73;12.17;;;22.20;99.90;;;;;;5136391;27;20422;-66
2021/07/11 02:28:51;;;;;;;15.43;13.07;;;22.20;99.90;;;;;;5136789;27;20424;-66
2021/07/11 02:31:17;;;;;;;15.77;14.13;;;22.20;99.90;;;;;;5136300;27;20422;-65
2021/07/11 02:33:44;;;;;;;16.67;13.93;;;22.10;99.90;;;;;;5117758;27;20477;-63
2021/07/11 02:36:20;;;;;;;15.00;12.10;;;22.10;99.90;;;;;;5136125;27;20519;-63
2021/07/11 02:38:52;;;;;;;14.03;11.70;;;22.00;99.90;;;;;;5136625;27;20423;-63
2021/07/11 02:41:20;;;;;;;15.17;13.47;;;22.00;99.90;;;;;;5136144;27;20419;-66
2021/07/11 02:43:47;;;;;;;15.73;13.67;;;22.00;99.90;;;;;;5136429;27;20470;-63
2021/07/11 02:46:19;;;;;;;17.93;13.50;;;21.90;99.90;;;;;;5117553;27;20947;-63
2021/07/11 02:48:46;;;;;;;15.13;12.30;;;21.90;99.90;;;;;;5135956;27;20460;-63
2021/07/11 02:51:16;;;;;;;13.50;11.90;;;21.90;99.90;;;;;;5117307;27;20423;-63
2021/07/11 02:53:44;;;;;;;17.37;13.60;;;21.80;99.90;;;;;;5117610;27;20943;-66
2021/07/11 02:56:17;;;;;;;17.50;13.77;;;21.80;99.90;;;;;;5135706;27;20463;-63
2021/07/11 02:58:44;;;;;;;15.33;13.57;;;21.80;99.90;;;;;;5136352;27;20459;-66
2021/07/11 03:01:11;;;;;;;15.70;14.00;;;21.80;99.90;;;;;;5117267;27;20443;-65
2021/07/11 03:03:36;;;;;;;17.00;13.10;;;21.80;99.90;;;;;;5135959;27;20967;-62
2021/07/11 03:06:03;;;;;;;16.53;13.30;;;21.80;99.90;;;;;;5135554;27;20415;-63
2021/07/11 03:08:29;;;;;;;15.80;12.60;;;21.80;99.90;;;;;;5135894;27;20179;-66
2021/07/11 03:10:56;;;;;;;15.73;11.97;;;21.80;99.90;;;;;;5135469;27;20467;-66
2021/07/11 03:13:25;;;;;;;16.03;13.07;;;21.80;99.90;;;;;;5135482;27;20663;-63
2021/07/11 03:15:50;;;;;;;16.07;12.90;;;21.80;99.90;;;;;;5135390;27;20431;-63
2021/07/11 03:18:18;;;;;;;16.23;12.90;;;21.80;99.90;;;;;;5136064;27;20832;-65
2021/07/11 03:20:47;;;;;;;15.33;13.40;;;21.70;99.90;;;;;;5116952;27;20686;-66
2021/07/11 03:23:13;;;;;;;15.53;13.20;;;21.70;99.90;;;;;;5116972;27;20567;-66
2021/07/11 03:25:39;;;;;;;16.10;13.47;;;21.70;99.90;;;;;;5116721;27;20439;-63
2021/07/11 03:28:06;;;;;;;17.90;14.27;;;21.70;99.90;;;;;;5135445;27;20205;-62
2021/07/11 03:30:38;;;;;;;18.50;13.80;;;21.70;99.90;;;;;;5116725;27;20222;-63
2021/07/11 03:33:05;;;;;;;15.37;13.10;;;21.70;99.90;;;;;;5135411;27;20419;-66
2021/07/11 03:35:35;;;;;;;14.87;13.27;;;21.70;99.90;;;;;;5135172;27;20438;-66
2021/07/11 03:38:03;;;;;;;14.73;12.43;;;21.70;99.90;;;;;;5135450;27;20765;-64
2021/07/11 03:40:36;;;;;;;22.57;15.00;;;21.70;99.90;;;;;;5116586;27;20442;-68
2021/07/11 03:43:07;;;;;;;16.93;14.77;;;21.80;99.90;;;;;;5135235;27;20455;-66
2021/07/11 03:45:34;;;;;;;18.83;14.47;;;21.80;99.90;;;;;;5135066;27;20423;-63
2021/07/11 03:48:08;;;;;;;17.33;13.50;;;21.80;99.90;;;;;;5135108;27;20419;-66
2021/07/11 03:50:37;;;;;;;15.10;13.50;;;21.80;99.90;;;;;;5134950;27;20458;-67
2021/07/11 03:53:06;;;;;;;16.30;13.00;;;21.80;99.90;;;;;;5134857;27;20426;-66
2021/07/11 03:55:33;;;;;;;16.73;13.53;;;21.80;99.90;;;;;;5134841;27;20793;-66
2021/07/11 03:58:00;;;;;;;15.67;13.37;;;21.80;99.90;;;;;;5134923;27;20462;-63
2021/07/11 04:00:27;;;;;;;15.47;13.50;;;21.80;99.90;;;;;;5134800;27;20411;-63
2021/07/11 04:02:53;;;;;;;22.67;14.60;;;21.90;99.90;;;;;;5134378;27;20478;-63
2021/07/11 04:05:26;;;;;;;15.70;13.60;;;21.90;99.90;;;;;;5134621;27;20420;-66
2021/07/11 04:07:53;;;;;;;16.47;13.87;;;21.90;99.90;;;;;;5134657;28;20433;-63
2021/07/11 04:10:27;;;;;;;16.83;13.10;;;21.90;99.90;;;;;;5134621;28;20420;-66
2021/07/11 04:12:54;;;;;;;15.10;13.50;;;21.90;99.90;;;;;;5134810;28;20427;-66
2021/07/11 04:15:20;;;;;;;14.77;13.17;;;22.00;99.90;;;;;;5134569;28;20415;-66
2021/07/11 04:17:49;;;;;;;15.23;13.10;;;22.00;99.90;;;;;;5134712;28;20458;-63
2021/07/11 04:20:17;;;;;;;18.30;13.87;;;22.00;99.90;;;;;;5134514;28;20510;-66
2021/07/11 04:22:44;;;;;;;17.77;13.00;;;22.10;99.90;;;;;;5116159;28;20573;-66
2021/07/11 04:25:12;;;;;;;18.93;13.50;;;22.10;99.90;;;;;;5116033;28;20485;-64
2021/07/11 04:27:39;;;;;;;15.33;13.60;;;22.10;99.90;;;;;;5134733;28;20418;-68
2021/07/11 04:30:06;;;;;;;18.33;13.60;;;22.20;99.90;;;;;;5134418;28;20412;-63
2021/07/11 04:32:34;;;;;;;16.03;14.30;;;22.20;99.90;;;;;;5116074;28;20415;-63
2021/07/11 04:34:59;;;;;;;15.57;12.63;;;22.30;99.90;;;;;;5134376;28;20399;-63
2021/07/11 04:37:25;;;;;;;20.03;14.60;;;22.30;99.90;;;;;;5134551;28;20419;-66
2021/07/11 04:39:50;;;;;;;17.77;14.60;;;22.30;99.90;;;;;;5134367;28;20306;-66
2021/07/11 04:42:17;;;;;;;15.50;13.33;;;22.40;99.90;;;;;;5115950;28;20184;-63
2021/07/11 04:44:45;;;;;;;16.50;14.10;;;22.40;99.90;;;;;;5134392;28;20508;-66
2021/07/11 04:47:14;;;;;;;15.27;12.87;;;22.50;99.90;;;;;;5134252;28;20467;-63
2021/07/11 04:49:41;;;;;;;17.47;13.07;;;22.50;99.90;;;;;;5134246;28;20395;-66
2021/07/11 04:52:07;;;;;;;18.30;13.27;;;22.50;99.90;;;;;;5134234;28;20447;-66
2021/07/11 04:54:34;;;;;;;15.70;13.67;;;22.50;99.90;;;;;;5134363;28;20863;-67
2021/07/11 04:57:00;;;;;;;16.37;13.53;;;22.60;99.90;;;;;;5133829;28;20414;-63
2021/07/11 04:59:26;;;;;;;17.43;12.40;;;22.70;99.90;;;;;;5134190;28;20816;-63
2021/07/11 05:01:51;;;;;;;15.30;12.10;;;22.70;99.90;;;;;;5134075;28;20427;-63
2021/07/11 05:04:17;;;;;;;14.50;11.80;;;22.80;99.90;;;;;;5134186;28;20238;-66
2021/07/11 05:06:42;;;;;;;14.47;11.20;;;22.80;99.90;;;;;;5115759;28;20202;-66
2021/07/11 05:09:08;;;;;;;15.50;11.47;;;22.90;99.90;;;;;;5134559;28;20182;-66
2021/07/11 05:11:34;;;;;;;12.50;9.83;;;22.90;99.90;;;;;;5134041;28;20621;-67
2021/07/11 05:14:01;;;;;;;12.20;10.70;;;23.00;99.90;;;;;;5134941;27;20219;-67
2021/07/11 05:16:27;;;;;;;11.37;10.10;;;23.00;99.90;;;;;;5137815;27;20430;-66
2021/07/11 05:18:53;;;;;;;11.60;9.30;;;23.10;99.90;;;;;;5138135;27;20407;-67
2021/07/11 05:21:18;;;;;;;10.33;9.13;;;23.20;99.90;;;;;;5119229;27;20928;-63
2021/07/11 05:23:44;;;;;;;10.67;9.50;;;23.20;99.90;;;;;;5138106;27;20199;-63
2021/07/11 05:26:10;;;;;;;9.43;8.47;;;23.30;99.90;;;;;;5137534;27;20266;-63
2021/07/11 05:28:35;;;;;;;9.33;8.43;;;23.40;99.90;;;;;;5137961;27;20176;-63
2021/07/11 05:31:01;;;;;;;9.70;7.63;;;23.40;99.90;;;;;;5137424;27;20687;-66
2021/07/11 05:33:27;;;;;;;10.00;9.00;;;23.50;99.90;;;;;;5137936;27;20175;-63
2021/07/11 05:35:52;;;;;;;11.80;8.90;;;23.60;99.90;;;;;;5118903;27;20224;-63
2021/07/11 05:38:18;;;;;;;9.33;8.43;;;23.70;99.90;;;;;;5137770;27;20665;-63
2021/07/11 05:40:44;;;;;;;10.43;9.40;;;23.70;99.90;;;;;;5137345;27;20648;-63
2021/07/11 05:43:09;;;;;;;8.83;7.97;;;23.80;99.90;;;;;;5137475;27;20203;-63
2021/07/11 05:45:35;;;;;;;9.67;7.77;;;23.90;99.90;;;;;;5137200;27;20197;-65
2021/07/11 05:48:01;;;;;;;8.53;7.60;;;24.00;99.90;;;;;;5137444;27;20257;-67
2021/07/11 05:50:26;;;;;;;11.63;7.77;;;24.10;99.90;;;;;;5137249;27;20200;-67
2021/07/11 05:52:52;;;;;;;8.40;7.53;;;24.20;99.90;;;;;;5137329;27;20185;-63
2021/07/11 05:55:18;;;;;;;9.13;8.10;;;24.20;99.90;;;;;;5137041;27;20199;-63
2021/07/11 05:57:43;;;;;;;14.20;7.70;;;24.30;99.90;;;;;;5136886;27;20236;-63
2021/07/11 06:00:11;;;;;;;8.60;7.80;;;24.40;99.90;;;;;;5118523;27;20918;-66
2021/07/11 06:02:37;;;;;;;9.90;7.97;;;24.50;99.90;;;;;;5136982;27;20213;-63
2021/07/11 06:05:04;;;;;;;9.63;7.33;;;24.60;99.90;;;;;;5136816;27;20772;-63
2021/07/11 06:07:29;;;;;;;8.60;7.67;;;24.70;99.90;;;;;;5136966;27;20705;-67
2021/07/11 06:09:57;;;;;;;7.37;6.77;;;24.80;99.90;;;;;;5136662;27;20429;-63
2021/07/11 06:12:23;;;;;;;9.43;6.70;;;24.90;99.90;;;;;;5118362;27;20635;-63
2021/07/11 06:14:49;;;;;;;7.90;7.20;;;25.00;99.90;;;;;;5136584;27;20401;-67
2021/07/11 06:17:15;;;;;;;8.47;7.67;;;25.00;99.90;;;;;;5136706;27;20490;-63
2021/07/11 06:19:41;;;;;;;8.20;7.40;;;25.20;99.90;;;;;;5118095;27;20185;-63
2021/07/11 06:22:06;;;;;;;8.03;7.27;;;25.20;99.90;;;;;;5118040;27;20959;-63
2021/07/11 06:24:32;;;;;;;8.23;6.73;;;25.30;99.90;;;;;;5117931;27;20273;-63
2021/07/11 06:26:58;;;;;;;8.27;7.47;;;25.40;99.90;;;;;;5136060;27;20660;-63
2021/07/11 06:29:23;;;;;;;8.30;7.47;;;25.40;99.90;;;;;;5136632;27;20182;-67
2021/07/11 06:31:49;;;;;;;8.10;7.40;;;25.50;99.90;;;;;;5117767;27;20194;-67
2021/07/11 06:34:14;;;;;;;8.80;8.00;;;25.60;99.90;;;;;;5136355;27;20257;-64
2021/07/11 06:36:40;;;;;;;8.87;7.40;;;25.70;99.90;;;;;;5136211;27;20190;-63
2021/07/11 06:39:07;;;;;;;9.40;8.47;;;25.80;99.90;;;;;;5117983;27;20176;-66
2021/07/11 06:41:32;;;;;;;8.93;7.80;;;25.90;99.90;;;;;;5136089;27;20561;-66
2021/07/11 06:43:58;;;;;;;7.47;6.77;;;26.00;99.90;;;;;;5136465;27;20469;-67
2021/07/11 06:46:24;;;;;;;8.73;7.10;;;26.00;99.90;;;;;;5136024;27;20290;-63
2021/07/11 06:48:50;;;;;;;9.40;7.40;;;26.20;99.90;;;;;;5136399;27;20175;-67
2021/07/11 06:51:15;;;;;;;9.77;7.40;;;26.20;99.90;;;;;;5135927;27;20191;-66
2021/07/11 06:53:41;;;;;;;7.33;6.73;;;26.30;99.90;;;;;;5136384;27;20171;-65
2021/07/11 06:56:07;;;;;;;7.43;6.73;;;26.40;99.90;;;;;;5135798;27;20198;-63
2021/07/11 06:58:32;;;;;;;7.70;7.00;;;26.50;99.90;;;;;;5135852;27;20306;-63
2021/07/11 07:00:58;;;;;;;7.40;6.70;;;26.60;99.90;;;;;;5135682;27;20187;-67
2021/07/11 07:03:24;;;;;;;8.57;7.77;;;26.60;99.90;;;;;;5117482;27;20215;-68
2021/07/11 07:05:49;;;;;;;10.63;7.30;;;26.70;99.90;;;;;;5135633;27;20215;-63
2021/07/11 07:08:15;;;;;;;8.63;7.70;;;26.80;99.90;;;;;;5135974;27;20258;-67
2021/07/11 07:10:41;;;;;;;8.00;7.30;;;26.90;99.90;;;;;;5135530;27;20187;-63
2021/07/11 07:13:06;;;;;;;8.40;7.70;;;26.90;99.90;;;;;;5135713;27;20335;-63
2021/07/11 07:15:32;;;;;;;8.47;7.67;;;27.00;99.90;;;;;;5117195;27;20609;-63
2021/07/11 07:17:58;;;;;;;8.17;7.50;;;27.10;99.90;;;;;;5135657;27;20258;-63
2021/07/11 07:20:23;;;;;;;8.70;7.93;;;27.20;99.90;;;;;;5116992;27;20551;-67
2021/07/11 07:22:49;;;;;;;8.83;7.97;;;27.20;99.90;;;;;;5135467;27;20675;-67
2021/07/11 07:25:17;;;;;;;8.47;7.80;;;27.30;99.90;;;;;;5135231;27;20197;-67
2021/07/11 07:27:43;;;;;;;8.90;8.00;;;27.40;99.90;;;;;;5116914;27;20175;-67
2021/07/11 07:30:10;;;;;;;8.30;7.60;;;27.50;99.90;;;;;;5116761;27;20518;-67
2021/07/11 07:32:37;;;;;;;10.03;8.17;;;27.50;99.90;;;;;;5135324;27;20844;-67
2021/07/11 07:35:04;;;;;;;8.70;8.00;;;27.60;99.90;;;;;;5116697;27;20923;-64
2021/07/11 07:37:30;;;;;;;8.37;7.07;;;27.70;99.90;;;;;;5134187;27;20427;-67
2021/07/11 07:39:56;;;;;;;7.93;7.33;;;27.70;99.90;;;;;;5134967;27;20407;-63
2021/07/11 07:42:22;;;;;;;8.83;7.97;;;27.80;99.90;;;;;;5135088;27;20415;-63
2021/07/11 07:44:48;;;;;;;10.23;7.97;;;27.90;99.90;;;;;;5134982;27;20179;-67
2021/07/11 07:47:13;;;;;;;9.10;8.23;;;28.00;99.90;;;;;;5116424;27;20171;-67
2021/07/11 07:49:39;;;;;;;11.00;8.17;;;28.10;99.90;;;;;;5116547;27;20187;-67
2021/07/11 07:52:05;;;;;;;8.70;7.90;;;28.20;99.90;;;;;;5116414;27;20634;-63
2021/07/11 07:54:30;;;;;;;9.30;8.50;;;28.20;99.90;;;;;;5116478;27;20182;-67
2021/07/11 07:56:56;;;;;;;7.40;6.80;;;28.30;99.90;;;;;;5134396;27;20651;-67
2021/07/11 07:59:22;;;;;;;8.30;6.90;;;28.40;99.90;;;;;;5116282;28;20219;-63
2021/07/11 08:01:47;;;;;;;7.70;6.93;;;28.40;99.90;;;;;;5134700;27;20668;-63
2021/07/11 08:04:13;;;;;;;8.13;7.30;;;28.50;99.90;;;;;;5134637;27;20267;-63
2021/07/11 08:06:39;;;;;;;7.53;6.90;;;28.60;99.90;;;;;;5134641;27;20230;-63
2021/07/11 08:09:06;;;;;;;9.17;7.07;;;28.60;99.90;;;;;;5135153;27;20176;-63
2021/07/11 08:11:33;;;;;;;9.03;8.10;;;28.70;99.90;;;;;;5134705;28;20279;-63
2021/07/11 08:13:59;;;;;;;9.37;7.80;;;28.80;99.90;;;;;;5134590;28;20409;-67
2021/07/11 08:16:24;;;;;;;8.63;7.83;;;28.90;99.90;;;;;;5134607;28;20449;-67
2021/07/11 08:18:50;;;;;;;8.03;7.27;;;28.90;99.90;;;;;;5135058;28;20184;-67
2021/07/11 08:21:16;;;;;;;7.03;6.33;;;29.00;99.90;;;;;;5134708;28;20197;-67
2021/07/11 08:23:42;;;;;;;7.57;6.83;;;29.10;99.90;;;;;;5115705;28;20635;-67
2021/07/11 08:26:07;;;;;;;8.77;7.97;;;29.20;99.90;;;;;;5134415;28;20467;-67
2021/07/11 08:28:33;;;;;;;6.50;5.90;;;29.30;99.90;;;;;;5134975;28;20173;-63
2021/07/11 08:30:58;;;;;;;7.03;6.43;;;29.40;99.90;;;;;;5134494;28;20194;-63
2021/07/11 08:33:24;;;;;;;6.93;6.30;;;29.40;99.90;;;;;;5134807;28;20650;-63
2021/07/11 08:35:50;;;;;;;9.40;6.83;;;29.50;99.90;;;;;;5134329;28;20202;-64
2021/07/11 08:38:15;;;;;;;25.33;7.20;;;29.60;99.90;;;;;;5116143;28;20577;-67
2021/07/11 08:40:41;;;;;;;6.23;5.70;;;29.70;99.90;;;;;;5134348;28;20230;-63
2021/07/11 08:43:08;;;;;;;6.53;5.90;;;29.70;99.60;;;;;;5134237;28;20210;-63
2021/07/11 08:45:34;;;;;;;6.80;4.30;;;29.80;99.50;;;;;;5115862;28;20198;-67
2021/07/11 08:48:01;;;;;;;4.93;4.53;;;29.80;94.60;;;;;;5116436;27;20852;-63
2021/07/11 08:50:26;;;;;;;6.53;5.80;;;29.90;95.30;;;;;;5138340;27;20416;-68
2021/07/11 08:52:54;;;;;;;7.30;6.17;;;29.90;95.40;;;;;;5138448;27;20413;-66
2021/07/11 08:55:25;;;;;;;6.20;5.40;;;30.00;95.20;;;;;;5119773;27;20195;-63
2021/07/11 08:57:55;;;;;;;5.53;5.13;;;30.10;95.80;;;;;;5138146;27;20473;-63
2021/07/11 09:00:24;;;;;;;7.30;6.60;;;30.20;96.30;;;;;;5138147;27;20425;-66
2021/07/11 09:02:49;;;;;;;6.27;5.70;;;30.20;95.70;;;;;;5138156;27;20493;-67
2021/07/11 09:05:25;;;;;;;5.67;5.27;;;30.30;94.60;;;;;;5138112;27;20419;-65
2021/07/11 09:08:06;;;;;;;5.67;5.27;;;30.30;95.10;;;;;;5119617;27;20180;-63
2021/07/11 09:10:47;;;;;;;5.47;4.67;;;30.40;91.90;;;;;;5137970;27;20501;-67
2021/07/11 09:13:15;;;;;;;9.10;6.33;;;30.40;92.60;;;;;;5138269;27;20413;-63
2021/07/11 09:15:45;;;;;;;5.70;5.20;;;30.40;92.60;;;;;;5119364;27;20427;-67
2021/07/11 09:18:11;;;;;;;5.90;5.40;;;30.50;92.30;;;;;;5119521;27;20814;-63
2021/07/11 09:20:53;;;;;;;5.90;4.90;;;30.50;92.00;;;;;;5137744;27;20418;-67
2021/07/11 09:23:19;;;;;;;6.00;5.50;;;30.50;92.50;;;;;;5138112;27;20213;-67
2021/07/11 09:26:05;;;;;;;5.83;5.33;;;30.60;92.60;;;;;;5119235;27;20788;-64
2021/07/11 09:28:32;;;;;;;5.90;5.40;;;30.60;92.80;;;;;;5138066;27;20422;-63
2021/07/11 09:31:10;;;;;;;5.77;5.27;;;30.70;93.90;;;;;;5137406;27;20420;-63
2021/07/11 09:33:41;;;;;;;6.10;5.70;;;30.80;92.80;;;;;;5138227;27;20437;-66
2021/07/11 09:36:16;;;;;;;6.33;5.83;;;30.90;92.50;;;;;;5137331;27;20407;-63
2021/07/11 09:38:49;;;;;;;7.33;5.13;;;31.00;92.20;;;;;;5119192;27;20454;-67
2021/07/11 09:41:20;;;;;;;6.10;5.60;;;31.10;91.60;;;;;;5137380;27;20422;-63
2021/07/11 09:43:46;;;;;;;8.57;6.30;;;31.10;91.20;;;;;;5118991;27;20488;-63
2021/07/11 09:46:16;;;;;;;6.70;6.20;;;31.10;91.40;;;;;;5137149;27;20773;-67
2021/07/11 09:48:42;;;;;;;6.70;5.90;;;31.20;91.50;;;;;;5137830;27;20983;-67
2021/07/11 09:51:25;;;;;;;5.83;5.30;;;31.20;90.90;;;;;;5137105;27;20422;-67
2021/07/11 09:53:51;;;;;;;5.23;4.83;;;31.30;90.40;;;;;;5137605;27;20435;-67
2021/07/11 09:56:41;;;;;;;5.50;5.00;;;31.30;90.80;;;;;;5136926;27;20812;-63
2021/07/11 09:59:12;;;;;;;7.43;5.40;;;31.30;91.30;;;;;;5136100;27;21117;-63
2021/07/11 10:01:40;;;;;;;8.77;5.90;;;31.40;90.50;;;;;;5136286;27;20438;-63
2021/07/11 10:04:07;;;;;;;5.90;5.40;;;31.40;89.20;;;;;;5137223;27;20970;-67
2021/07/11 10:06:33;;;;;;;5.90;5.30;;;31.40;89.80;;;;;;5118319;27;20441;-63
2021/07/11 10:09:00;;;;;;;5.50;5.00;;;31.40;89.70;;;;;;5137245;27;20407;-66
2021/07/11 10:11:26;;;;;;;5.50;5.00;;;31.40;88.30;;;;;;5136779;27;20776;-63
2021/07/11 10:13:52;;;;;;;6.20;5.60;;;31.40;87.80;;;;;;5118467;27;20415;-63
2021/07/11 10:16:19;;;;;;;5.90;5.40;;;31.40;86.90;;;;;;5136629;27;20789;-67
2021/07/11 10:18:47;;;;;;;7.63;5.87;;;31.40;86.60;;;;;;5137076;27;20414;-67
2021/07/11 10:21:14;;;;;;;5.83;5.40;;;31.40;85.90;;;;;;5136538;27;20419;-63
2021/07/11 10:23:41;;;;;;;6.20;5.60;;;31.50;89.20;;;;;;5136459;27;20470;-63
2021/07/11 10:26:12;;;;;;;6.57;5.47;;;31.50;88.10;;;;;;5136442;27;20415;-67
2021/07/11 10:28:41;;;;;;;6.03;5.63;;;31.60;88.00;;;;;;5136941;27;20406;-67
2021/07/11 10:31:25;;;;;;;6.00;5.57;;;31.70;88.20;;;;;;5136267;27;20422;-67
2021/07/11 10:33:53;;;;;;;6.20;5.70;;;31.70;84.70;;;;;;5136847;27;20451;-63
2021/07/11 10:36:29;;;;;;;5.80;5.20;;;31.70;85.80;;;;;;5136272;27;20773;-67
2021/07/11 10:38:56;;;;;;;5.50;5.10;;;31.70;86.50;;;;;;5136758;27;20415;-63
2021/07/11 10:41:24;;;;;;;7.87;5.67;;;31.70;86.00;;;;;;5136158;27;20438;-63
2021/07/11 10:44:09;;;;;;;6.33;5.87;;;31.70;88.20;;;;;;5136490;27;20501;-67
2021/07/11 10:46:53;;;;;;;6.63;6.13;;;31.70;85.80;;;;;;5136129;27;20429;-65
2021/07/11 10:49:21;;;;;;;7.20;6.60;;;31.80;86.10;;;;;;5136138;27;20407;-63
2021/07/11 10:51:48;;;;;;;6.67;6.17;;;31.80;86.60;;;;;;5135944;27;20442;-67
2021/07/11 10:54:21;;;;;;;7.27;6.70;;;31.80;88.40;;;;;;5136025;27;20414;-67
2021/07/11 10:56:47;;;;;;;7.73;5.80;;;31.90;87.40;;;;;;5135762;27;20462;-67
2021/07/11 10:59:28;;;;;;;7.47;6.87;;;31.90;85.80;;;;;;5117531;27;20490;-67
2021/07/11 11:01:55;;;;;;;7.00;6.40;;;31.90;86.50;;;;;;5135731;27;20202;-67
2021/07/11 11:04:21;;;;;;;7.57;6.90;;;31.80;87.00;;;;;;5117264;27;20462;-63
2021/07/11 11:06:47;;;;;;;7.07;6.47;;;31.80;86.30;;;;;;5135588;27;20431;-66
2021/07/11 11:09:38;;;;;;;9.33;6.47;;;31.80;86.70;;;;;;5135744;27;20179;-63
2021/07/11 11:12:25;;;;;;;8.33;6.90;;;31.80;88.00;;;;;;5134588;27;20432;-63
2021/07/11 11:14:58;;;;;;;7.00;6.50;;;31.90;87.50;;;;;;5117178;27;20409;-67
2021/07/11 11:17:33;;;;;;;7.83;7.07;;;31.90;88.10;;;;;;5135457;27;20433;-67
2021/07/11 11:20:00;;;;;;;6.87;6.27;;;31.90;87.80;;;;;;5117015;27;20418;-63
2021/07/11 11:22:25;;;;;;;7.97;7.17;;;31.90;87.60;;;;;;5135382;27;20411;-63
2021/07/11 11:24:52;;;;;;;6.90;6.30;;;31.90;88.30;;;;;;5135243;27;20490;-63
2021/07/11 11:27:39;;;;;;;8.70;7.23;;;31.90;87.60;;;;;;5135260;27;20179;-64
2021/07/11 11:30:18;;;;;;;9.23;7.20;;;32.00;88.40;;;;;;5116714;27;20469;-67
2021/07/11 11:32:50;;;;;;;6.70;6.17;;;32.00;89.20;;;;;;5134865;27;20920;-67
2021/07/11 11:35:19;;;;;;;8.03;7.23;;;32.00;88.40;;;;;;5135167;27;20430;-63
2021/07/11 11:37:47;;;;;;;7.47;6.87;;;32.10;88.50;;;;;;5135339;27;20525;-67
2021/07/11 11:40:13;;;;;;;7.43;6.73;;;32.10;90.30;;;;;;5135024;27;20506;-63
2021/07/11 11:42:50;;;;;;;7.77;7.17;;;32.10;90.20;;;;;;5135191;27;20465;-63
2021/07/11 11:45:19;;;;;;;7.23;6.73;;;32.20;88.60;;;;;;5116575;27;20438;-64
2021/07/11 11:47:56;;;;;;;7.20;6.70;;;32.20;89.50;;;;;;5116636;27;20927;-63
2021/07/11 11:50:22;;;;;;;7.23;6.53;;;32.20;88.80;;;;;;5116520;27;20775;-63
2021/07/11 11:52:47;;;;;;;7.83;7.23;;;32.30;88.70;;;;;;5135115;27;20472;-68
2021/07/11 11:55:14;;;;;;;10.20;7.50;;;32.40;88.40;;;;;;5134749;27;20194;-67
2021/07/11 11:57:41;;;;;;;8.20;7.43;;;32.40;88.70;;;;;;5116201;27;20761;-63
2021/07/11 12:00:18;;;;;;;7.63;6.90;;;32.50;88.40;;;;;;5134730;27;20423;-63
2021/07/11 12:02:44;;;;;;;7.07;6.57;;;32.40;87.50;;;;;;5134742;27;20458;-67
2021/07/11 12:05:12;;;;;;;7.70;6.97;;;32.40;86.80;;;;;;5134704;27;20415;-67
2021/07/11 12:07:39;;;;;;;8.17;7.37;;;32.30;87.10;;;;;;5134872;27;20568;-64
2021/07/11 12:10:06;;;;;;;7.43;6.80;;;32.30;88.90;;;;;;5116136;28;20427;-67
2021/07/11 12:12:32;;;;;;;7.30;6.70;;;32.20;87.20;;;;;;5134882;28;20426;-67
2021/07/11 12:15:00;;;;;;;8.03;7.27;;;32.20;86.80;;;;;;5134524;28;20482;-67
2021/07/11 12:17:33;;;;;;;7.90;7.10;;;32.10;89.70;;;;;;5134685;28;20426;-64
2021/07/11 12:19:59;;;;;;;7.90;7.13;;;32.10;88.90;;;;;;5134568;28;20387;-63
2021/07/11 12:22:27;;;;;;;7.40;6.70;;;32.10;88.70;;;;;;5134667;27;20415;-63
2021/07/11 12:25:27;;;;;;;10.10;7.10;;;32.20;88.60;;;;;;5119940;27;20415;-67
2021/07/11 12:28:01;;;;;;;8.30;6.60;;;32.10;86.80;;;;;;5138995;27;20446;-64
2021/07/11 12:30:41;;;;;;;7.30;6.70;;;32.20;87.40;;;;;;5120490;27;20426;-63
2021/07/11 12:33:08;;;;;;;7.20;6.70;;;32.30;87.30;;;;;;5139019;27;20422;-68
2021/07/11 12:35:49;;;;;;;7.43;6.87;;;32.30;88.10;;;;;;5138587;27;20434;-63
2021/07/11 12:38:15;;;;;;;7.40;6.87;;;32.40;86.40;;;;;;5139110;27;20836;-63
2021/07/11 12:40:42;;;;;;;7.03;6.43;;;32.40;86.60;;;;;;5120062;27;20449;-63
2021/07/11 12:43:20;;;;;;;7.10;6.40;;;32.40;83.90;;;;;;5119815;27;20479;-63